createdAt,value
2023-05-25T00:04:02.969Z,11.90
2023-05-25T00:09:56.522Z,11.90
2023-05-25T00:15:51.208Z,11.90
2023-05-25T00:21:44.898Z,11.80
2023-05-25T00:27:38.432Z,11.80
2023-05-25T00:33:33.346Z,11.90
2023-05-25T00:39:26.877Z,11.70
2023-05-25T00:45:20.077Z,11.60
2023-05-25T00:51:16.658Z,11.70
2023-05-25T00:57:12.565Z,11.60
2023-05-25T01:03:12.335Z,11.60
2023-05-25T01:09:10.467Z,11.70
2023-05-25T01:15:10.783Z,11.60
2023-05-25T01:21:20.560Z,11.50
2023-05-25T01:27:19.521Z,11.60
2023-05-25T01:33:13.687Z,11.60
2023-05-25T01:39:11.414Z,11.40
2023-05-25T01:45:05.814Z,11.50
2023-05-25T01:51:02.490Z,11.50
2023-05-25T01:57:02.304Z,11.40
2023-05-25T02:02:56.338Z,11.40
2023-05-25T02:08:50.036Z,11.30
2023-05-25T02:14:46.460Z,11.40
2023-05-25T02:20:41.017Z,11.40
2023-05-25T02:26:34.617Z,11.30
2023-05-25T02:32:29.885Z,11.40
2023-05-25T02:38:23.595Z,11.10
2023-05-25T02:44:17.445Z,11.20
2023-05-25T02:50:12.858Z,11.20
2023-05-25T02:56:11.741Z,11.20
2023-05-25T03:02:05.226Z,11.20
2023-05-25T03:08:00.906Z,11.30
2023-05-25T03:13:54.464Z,11.20
2023-05-25T03:19:49.168Z,11.10
2023-05-25T03:25:44.241Z,11.00
2023-05-25T03:31:37.499Z,11.00
2023-05-25T03:37:31.125Z,11.10
2023-05-25T03:43:26.564Z,11.10
2023-05-25T03:49:20.359Z,10.90
2023-05-25T03:55:14.972Z,11.00
2023-05-25T04:01:10.581Z,10.90
2023-05-25T04:07:04.081Z,10.90
2023-05-25T04:12:57.708Z,10.90
2023-05-25T04:18:52.802Z,11.00
2023-05-25T04:24:47.085Z,11.00
2023-05-25T04:30:42.488Z,10.80
2023-05-25T04:36:54.392Z,10.90
2023-05-25T04:42:48.434Z,10.80
2023-05-25T04:48:42.836Z,10.80
2023-05-25T04:54:37.833Z,10.90
2023-05-25T05:00:31.443Z,10.90
2023-05-25T05:06:27.045Z,11.00
2023-05-25T05:12:23.081Z,11.10
2023-05-25T05:18:18.928Z,11.30
2023-05-25T05:24:14.254Z,11.40
2023-05-25T05:30:10.907Z,11.40
2023-05-25T05:36:05.233Z,11.40
2023-05-25T05:41:59.616Z,11.40
2023-05-25T05:47:54.790Z,11.40
2023-05-25T05:53:48.325Z,11.50
2023-05-25T05:59:42.469Z,11.50
2023-05-25T06:05:37.031Z,11.50
2023-05-25T06:11:31.689Z,11.70
2023-05-25T06:17:24.959Z,11.80
2023-05-25T06:23:22.151Z,12.10
2023-05-25T06:29:17.289Z,12.40
2023-05-25T06:35:17.750Z,12.40
2023-05-25T06:41:15.126Z,12.40
2023-05-25T06:47:09.620Z,12.50
2023-05-25T06:53:02.818Z,12.60
2023-05-25T06:58:57.728Z,12.90
2023-05-25T07:04:51.505Z,12.90
2023-05-25T07:10:44.731Z,13.00
2023-05-25T07:16:39.747Z,13.20
2023-05-25T07:22:32.894Z,13.20
2023-05-25T07:28:26.380Z,13.40
2023-05-25T07:34:21.580Z,13.60
2023-05-25T07:40:15.068Z,13.40
2023-05-25T07:46:08.546Z,13.40
2023-05-25T07:52:03.646Z,13.40
2023-05-25T07:57:56.731Z,13.50
2023-05-25T08:03:50.681Z,13.60
2023-05-25T08:09:45.664Z,13.60
2023-05-25T08:15:39.151Z,13.70
2023-05-25T08:21:35.332Z,14.00
2023-05-25T08:27:30.050Z,14.10
2023-05-25T08:33:25.971Z,14.00
2023-05-25T08:39:19.312Z,13.90
2023-05-25T08:45:26.288Z,14.20
2023-05-25T08:51:27.086Z,14.30
2023-05-25T08:57:25.472Z,14.50
2023-05-25T09:03:21.821Z,14.50
2023-05-25T09:09:16.136Z,14.50
2023-05-25T09:15:13.558Z,14.70
2023-05-25T09:21:08.510Z,14.90
2023-05-25T09:27:02.036Z,15.00
2023-05-25T09:32:56.480Z,15.00
2023-05-25T09:38:51.888Z,15.30
2023-05-25T09:44:45.664Z,15.50
2023-05-25T09:50:39.260Z,15.60
2023-05-25T09:56:34.684Z,15.70
2023-05-25T10:02:27.909Z,15.80
2023-05-25T10:08:23.427Z,15.90
2023-05-25T10:14:25.912Z,15.80
2023-05-25T10:20:26.115Z,16.00
2023-05-25T10:26:27.249Z,15.90
2023-05-25T10:32:21.730Z,16.10
2023-05-25T10:38:14.989Z,16.20
2023-05-25T10:44:08.918Z,16.30
2023-05-25T10:50:04.746Z,16.90
2023-05-25T10:56:04.332Z,17.10
2023-05-25T11:01:57.867Z,17.30
2023-05-25T11:07:56.180Z,17.50
2023-05-25T11:13:50.972Z,17.30
2023-05-25T11:19:48.788Z,17.50
2023-05-25T11:25:45.507Z,17.50
2023-05-25T11:31:43.326Z,17.60
2023-05-25T11:37:37.953Z,17.60
2023-05-25T11:43:34.701Z,17.40
2023-05-25T11:49:28.471Z,17.80
2023-05-25T11:55:21.899Z,18.20
2023-05-25T12:01:18.713Z,18.30
2023-05-25T12:07:12.659Z,18.20
2023-05-25T12:13:10.002Z,18.50
2023-05-25T12:19:05.271Z,18.60
2023-05-25T12:24:58.891Z,18.80
2023-05-25T12:30:52.046Z,19.00
2023-05-25T12:36:49.356Z,19.00
2023-05-25T12:42:42.422Z,19.20
2023-05-25T12:48:36.091Z,19.70
2023-05-25T12:54:41.232Z,19.30
2023-05-25T13:00:36.205Z,19.00
2023-05-25T13:06:29.720Z,19.40
2023-05-25T13:12:24.593Z,19.70
2023-05-25T13:18:18.077Z,19.70
2023-05-25T13:24:11.656Z,19.90
2023-05-25T13:30:11.839Z,20.00
2023-05-25T13:36:09.423Z,20.40
2023-05-25T13:42:02.485Z,20.20
2023-05-25T13:47:57.521Z,20.00
2023-05-25T13:53:51.242Z,20.50
2023-05-25T13:59:44.752Z,20.70
2023-05-25T14:05:39.609Z,20.80
2023-05-25T14:11:32.618Z,20.70
2023-05-25T14:17:26.342Z,20.60
2023-05-25T14:23:21.522Z,20.80
2023-05-25T14:29:15.028Z,21.20
2023-05-25T14:35:10.099Z,20.80
2023-05-25T14:41:05.054Z,20.50
2023-05-25T14:46:58.833Z,20.20
2023-05-25T14:52:52.441Z,20.50
2023-05-25T14:58:47.292Z,20.60
2023-05-25T15:04:40.759Z,20.50
2023-05-25T15:10:34.403Z,20.40
2023-05-25T15:16:28.840Z,20.40
2023-05-25T15:22:22.434Z,20.30
2023-05-25T15:28:15.546Z,20.30
2023-05-25T15:34:11.103Z,20.20
2023-05-25T15:40:05.647Z,20.20
2023-05-25T15:45:59.319Z,20.30
2023-05-25T15:51:54.652Z,20.30
2023-05-25T15:57:47.703Z,20.30
2023-05-25T16:03:43.352Z,20.20
2023-05-25T16:09:38.259Z,20.10
2023-05-25T16:15:31.705Z,20.00
2023-05-25T16:21:26.165Z,19.90
2023-05-25T16:27:20.567Z,19.70
2023-05-25T16:33:14.280Z,19.40
2023-05-25T16:39:08.076Z,19.40
2023-05-25T16:45:02.943Z,19.30
2023-05-25T16:50:56.439Z,19.20
2023-05-25T16:56:50.027Z,19.00
2023-05-25T17:02:44.541Z,19.00
2023-05-25T17:08:38.052Z,18.80
2023-05-25T17:14:31.320Z,18.70
2023-05-25T17:20:25.770Z,18.60
2023-05-25T17:26:19.278Z,18.40
2023-05-25T17:32:12.769Z,18.40
2023-05-25T17:38:07.607Z,18.20
2023-05-25T17:44:01.071Z,18.20
2023-05-25T17:49:54.598Z,18.20
2023-05-25T17:55:49.562Z,18.20
2023-05-25T18:01:43.049Z,17.90
2023-05-25T18:07:36.512Z,17.90
2023-05-25T18:13:30.902Z,17.80
2023-05-25T18:19:24.339Z,17.70
2023-05-25T18:25:17.821Z,17.60
2023-05-25T18:31:12.253Z,17.60
2023-05-25T18:37:05.578Z,17.50
2023-05-25T18:42:59.413Z,17.50
2023-05-25T18:48:54.557Z,17.40
2023-05-25T18:54:48.705Z,17.40
2023-05-25T19:00:41.791Z,17.40
2023-05-25T19:06:36.198Z,17.30
2023-05-25T19:12:29.655Z,17.30
2023-05-25T19:18:23.179Z,17.20
2023-05-25T19:24:19.011Z,17.00
2023-05-25T19:30:12.724Z,16.90
2023-05-25T19:36:06.713Z,16.80
2023-05-25T19:42:01.713Z,16.70
2023-05-25T19:47:56.130Z,16.50
2023-05-25T19:53:51.311Z,16.50
2023-05-25T19:59:46.225Z,16.40
2023-05-25T20:05:39.804Z,16.30
2023-05-25T20:11:33.276Z,16.20
2023-05-25T20:17:28.379Z,16.10
2023-05-25T20:23:21.992Z,15.90
2023-05-25T20:29:15.610Z,15.60
2023-05-25T20:35:11.085Z,15.70
2023-05-25T20:41:04.587Z,15.60
2023-05-25T20:46:58.026Z,15.30
2023-05-25T20:52:52.856Z,14.90
2023-05-25T20:58:46.422Z,14.70
2023-05-25T21:04:39.855Z,14.80
2023-05-25T21:10:34.756Z,14.90
2023-05-25T21:16:28.426Z,14.80
2023-05-25T21:22:22.129Z,14.60
2023-05-25T21:28:17.041Z,14.50
2023-05-25T21:34:12.413Z,14.50
2023-05-25T21:40:07.558Z,14.40
2023-05-25T21:46:02.821Z,14.00
2023-05-25T21:51:56.268Z,13.90
2023-05-25T21:57:49.740Z,14.10
2023-05-25T22:03:45.203Z,13.90
2023-05-25T22:09:38.682Z,14.00
2023-05-25T22:15:32.268Z,13.90
2023-05-25T22:21:27.089Z,13.80
2023-05-25T22:27:20.550Z,13.70
2023-05-25T22:33:13.997Z,13.80
2023-05-25T22:39:08.901Z,13.70
2023-05-25T22:45:02.368Z,13.60
2023-05-25T22:50:55.815Z,13.60
2023-05-25T22:56:50.638Z,13.50
2023-05-25T23:02:44.229Z,13.40
2023-05-25T23:08:37.716Z,13.40
2023-05-25T23:14:32.947Z,13.30
2023-05-25T23:20:26.505Z,13.30
2023-05-25T23:26:20.109Z,13.00
2023-05-25T23:32:14.879Z,13.10
2023-05-25T23:38:08.367Z,12.90
2023-05-25T23:44:02.618Z,12.90
2023-05-25T23:49:58.703Z,12.70
2023-05-25T23:55:52.256Z,12.60
